Sycamore, South Carolina
Current Conditions -  °F | °C
As of 4:55 PM on Thursday 23 Oct 2014 (Local Time) from KBNL Reporting Station
Clear Clear  
Wind Chill: 72°   Ceiling: Unl
Heat Index: 72°   Visibility: 10mi
Dew Point: 41°   Wind: 6mph
Humidity: 33%   Direction: 250°WSW
Pressure: 30"   Gusts: NA
Location:  33.04°N, 81.22°W
Report Text: KBNL 232055Z AUTO 25005KT 10SM CLR 22/05 A3000 RMK AO2
Loading
Personal Weather Stations






























Interactive Weather Map
Tropical Storm Tracking
New forecast layout! Learn more

10-Day Weather Forecast

Advertisements
Track Severe Weather on mobile